Time,TemperatureF,DewpointF,PressureIn,WindDirection,WindDirectionDegrees,WindSpeedMPH,WindSpeedGustMPH,Humidity,HourlyPrecipIn,Conditions,Clouds,dailyrainin,SoftwareType,DateUTC
2014-12-25 00:05:00,38.7,35.5,29.65,WNW,292,2.2,-999.0,88,-99.99,,,0.00,Acu-Link.com,2014-12-25 06:05:00,
2014-12-25 00:20:00,38.5,35.3,29.66,West,270,3.7,-999.0,88,-99.99,,,0.00,Acu-Link.com,2014-12-25 06:20:00,
2014-12-25 01:18:00,38.5,35.3,29.69,ESE,112,5.3,-999.0,88,-99.99,,,0.00,Acu-Link.com,2014-12-25 07:18:00,
2014-12-25 01:33:00,38.5,35.3,29.71,SSW,202,2.7,-999.0,88,-99.99,,,0.00,Acu-Link.com,2014-12-25 07:33:00,
2014-12-25 01:48:00,38.5,35.3,29.71,South,180,1.7,-999.0,88,-99.99,,,0.00,Acu-Link.com,2014-12-25 07:48:00,
2014-12-25 02:03:00,38.3,35.3,29.72,ESE,112,0.0,-999.0,89,-99.99,,,0.00,Acu-Link.com,2014-12-25 08:03:00,
2014-12-25 02:18:00,38.3,35.3,29.73,SE,135,0.0,-999.0,89,-99.99,,,0.00,Acu-Link.com,2014-12-25 08:18:00,
2014-12-25 02:33:00,38.3,35.3,29.74,WNW,292,0.0,-999.0,89,-99.99,,,0.00,Acu-Link.com,2014-12-25 08:33:00,
2014-12-25 02:49:00,38.3,35.6,29.75,SW,225,0.0,-999.0,90,-99.99,,,0.00,Acu-Link.com,2014-12-25 08:49:00,
2014-12-25 03:04:00,38.3,35.6,29.75,SW,225,0.0,-999.0,90,-99.99,,,0.00,Acu-Link.com,2014-12-25 09:04:00,
2014-12-25 03:19:00,38.3,35.3,29.76,SW,225,1.7,-999.0,89,-99.99,,,0.00,Acu-Link.com,2014-12-25 09:19:00,
2014-12-25 03:34:00,38.5,35.3,29.76,NW,315,2.7,-999.0,88,-99.99,,,0.00,Acu-Link.com,2014-12-25 09:34:00,
2014-12-25 03:49:00,38.5,35.3,29.77,SW,225,1.1,-999.0,88,-99.99,,,0.00,Acu-Link.com,2014-12-25 09:49:00,
2014-12-25 04:05:00,38.5,35.3,29.77,North,0,1.1,-999.0,88,-99.99,,,0.00,Acu-Link.com,2014-12-25 10:05:00,
2014-12-25 04:20:00,38.5,35.3,29.78,SSW,202,0.0,-999.0,88,-99.99,,,0.00,Acu-Link.com,2014-12-25 10:20:00,
2014-12-25 04:35:00,38.3,35.1,29.78,SSW,202,0.0,-999.0,88,-99.99,,,0.00,Acu-Link.com,2014-12-25 10:35:00,
2014-12-25 04:50:00,38.3,34.8,29.79,WNW,292,3.7,-999.0,87,-99.99,,,0.00,Acu-Link.com,2014-12-25 10:50:00,
2014-12-25 05:06:00,38.7,34.3,29.80,WNW,292,3.7,-999.0,84,-99.99,,,0.00,Acu-Link.com,2014-12-25 11:06:00,
2014-12-25 05:21:00,38.8,33.5,29.81,West,270,1.7,-999.0,81,-99.99,,,0.00,Acu-Link.com,2014-12-25 11:21:00,
2014-12-25 05:36:00,38.8,33.5,29.82,South,180,1.7,-999.0,81,-99.99,,,0.00,Acu-Link.com,2014-12-25 11:36:00,
2014-12-25 05:51:00,38.8,32.9,29.82,WNW,292,4.7,-999.0,79,-99.99,,,0.00,Acu-Link.com,2014-12-25 11:51:00,
2014-12-25 06:06:00,38.8,32.9,29.83,SW,225,1.7,-999.0,79,-99.99,,,0.00,Acu-Link.com,2014-12-25 12:06:00,
2014-12-25 06:22:00,38.7,33.1,29.84,SSE,157,3.2,-999.0,80,-99.99,,,0.00,Acu-Link.com,2014-12-25 12:22:00,
2014-12-25 06:37:00,38.7,33.1,29.84,WSW,247,2.2,-999.0,80,-99.99,,,0.00,Acu-Link.com,2014-12-25 12:37:00,
2014-12-25 06:52:00,38.7,33.1,29.85,SSE,157,2.2,-999.0,80,-99.99,,,0.00,Acu-Link.com,2014-12-25 12:52:00,
2014-12-25 07:07:00,38.7,34.0,29.86,West,270,0.0,-999.0,83,-99.99,,,0.00,Acu-Link.com,2014-12-25 13:07:00,
2014-12-25 07:22:00,38.7,34.9,29.87,West,270,0.0,-999.0,86,-99.99,,,0.00,Acu-Link.com,2014-12-25 13:22:00,
2014-12-25 07:38:00,38.7,34.9,29.87,SW,225,0.0,-999.0,86,-99.99,,,0.00,Acu-Link.com,2014-12-25 13:38:00,
2014-12-25 07:53:00,38.8,35.3,29.88,SW,225,1.7,-999.0,87,-99.99,,,0.00,Acu-Link.com,2014-12-25 13:53:00,
2014-12-25 08:08:00,39.0,35.2,29.88,SE,135,3.2,-999.0,86,-99.99,,,0.00,Acu-Link.com,2014-12-25 14:08:00,
2014-12-25 08:23:00,39.6,35.2,29.89,SSW,202,1.1,-999.0,84,-99.99,,,0.00,Acu-Link.com,2014-12-25 14:23:00,
2014-12-25 08:38:00,39.9,34.2,29.89,SSW,202,5.3,-999.0,80,-99.99,,,0.00,Acu-Link.com,2014-12-25 14:38:00,
2014-12-25 08:54:00,40.8,34.2,29.91,SSW,202,3.7,-999.0,77,-99.99,,,0.00,Acu-Link.com,2014-12-25 14:54:00,
2014-12-25 09:09:00,41.5,34.5,29.91,SW,225,2.2,-999.0,76,-99.99,,,0.00,Acu-Link.com,2014-12-25 15:09:00,
2014-12-25 09:24:00,42.3,34.6,29.93,SW,225,3.2,-999.0,74,-99.99,,,0.00,Acu-Link.com,2014-12-25 15:24:00,
2014-12-25 09:39:00,43.0,34.9,29.93,SW,225,2.7,-999.0,73,-99.99,,,0.00,Acu-Link.com,2014-12-25 15:39:00,
2014-12-25 09:55:00,43.0,34.9,29.94,SSW,202,2.7,-999.0,73,-99.99,,,0.00,Acu-Link.com,2014-12-25 15:55:00,
2014-12-25 10:10:00,42.8,34.4,29.94,ENE,67,2.2,-999.0,72,-99.99,,,0.00,Acu-Link.com,2014-12-25 16:10:00,
2014-12-25 10:25:00,43.2,34.8,29.95,South,180,7.3,-999.0,72,-99.99,,,0.00,Acu-Link.com,2014-12-25 16:25:00,
2014-12-25 10:40:00,44.6,36.1,29.94,South,180,3.7,-999.0,72,-99.99,,,0.00,Acu-Link.com,2014-12-25 16:40:00,
2014-12-25 10:55:00,45.1,35.9,29.93,South,180,2.2,-999.0,70,-99.99,,,0.00,Acu-Link.com,2014-12-25 16:55:00,
2014-12-25 11:11:00,46.0,36.4,29.92,SSE,157,3.7,-999.0,69,-99.99,,,0.00,Acu-Link.com,2014-12-25 17:11:00,
2014-12-25 11:26:00,44.4,35.2,29.91,ESE,112,4.7,-999.0,70,-99.99,,,0.00,Acu-Link.com,2014-12-25 17:26:00,
2014-12-25 11:41:00,45.1,36.3,29.91,North,0,6.3,-999.0,71,-99.99,,,0.00,Acu-Link.com,2014-12-25 17:41:00,
2014-12-25 11:57:00,46.2,37.0,29.90,South,180,2.7,-999.0,70,-99.99,,,0.00,Acu-Link.com,2014-12-25 17:57:00,
2014-12-25 12:12:00,46.8,37.2,29.90,SSW,202,8.3,-999.0,69,-99.99,,,0.00,Acu-Link.com,2014-12-25 18:12:00,
2014-12-25 12:27:00,46.4,36.8,29.90,South,180,4.7,-999.0,69,-99.99,,,0.00,Acu-Link.com,2014-12-25 18:27:00,
2014-12-25 12:42:00,47.1,37.1,29.90,South,180,6.8,-999.0,68,-99.99,,,0.00,Acu-Link.com,2014-12-25 18:42:00,
2014-12-25 12:58:00,47.7,37.7,29.90,North,0,4.2,-999.0,68,-99.99,,,0.00,Acu-Link.com,2014-12-25 18:58:00,
2014-12-25 13:13:00,47.5,37.5,29.90,SSW,202,4.2,-999.0,68,-99.99,,,0.00,Acu-Link.com,2014-12-25 19:13:00,
2014-12-25 13:28:00,47.7,37.7,29.90,SSE,157,8.3,-999.0,68,-99.99,,,0.00,Acu-Link.com,2014-12-25 19:28:00,
2014-12-25 13:43:00,48.2,37.4,29.90,SSE,157,3.7,-999.0,66,-99.99,,,0.00,Acu-Link.com,2014-12-25 19:43:00,
2014-12-25 13:59:00,48.4,38.3,29.90,SW,225,4.2,-999.0,68,-99.99,,,0.00,Acu-Link.com,2014-12-25 19:59:00,
2014-12-25 14:14:00,48.6,38.1,29.90,West,270,5.3,-999.0,67,-99.99,,,0.00,Acu-Link.com,2014-12-25 20:14:00,
2014-12-25 14:29:00,48.6,38.1,29.89,SSW,202,2.7,-999.0,67,-99.99,,,0.00,Acu-Link.com,2014-12-25 20:29:00,
2014-12-25 14:44:00,48.7,37.9,29.90,SSE,157,3.2,-999.0,66,-99.99,,,0.00,Acu-Link.com,2014-12-25 20:44:00,
2014-12-25 15:00:00,48.7,38.2,29.89,SSW,202,3.2,-999.0,67,-99.99,,,0.00,Acu-Link.com,2014-12-25 21:00:00,
2014-12-25 15:15:00,48.9,38.0,29.90,East,90,0.0,-999.0,66,-99.99,,,0.00,Acu-Link.com,2014-12-25 21:15:00,
2014-12-25 15:30:00,48.2,37.4,29.90,ESE,112,1.7,-999.0,66,-99.99,,,0.00,Acu-Link.com,2014-12-25 21:30:00,
2014-12-25 15:46:00,47.5,37.1,29.91,South,180,2.7,-999.0,67,-99.99,,,0.00,Acu-Link.com,2014-12-25 21:46:00,
2014-12-25 16:01:00,47.3,37.3,29.91,NNW,337,4.2,-999.0,68,-99.99,,,0.00,Acu-Link.com,2014-12-25 22:01:00,
2014-12-25 16:16:00,46.4,36.8,29.92,West,270,2.2,-999.0,69,-99.99,,,0.00,Acu-Link.com,2014-12-25 22:16:00,
2014-12-25 16:31:00,45.3,36.5,29.91,SSE,157,3.2,-999.0,71,-99.99,,,0.00,Acu-Link.com,2014-12-25 22:31:00,
2014-12-25 16:46:00,44.1,36.0,29.90,SSE,157,0.0,-999.0,73,-99.99,,,0.00,Acu-Link.com,2014-12-25 22:46:00,
2014-12-25 17:02:00,42.3,35.0,29.90,SSW,202,0.0,-999.0,75,-99.99,,,0.00,Acu-Link.com,2014-12-25 23:02:00,
2014-12-25 17:17:00,40.8,34.5,29.90,NNE,22,0.0,-999.0,78,-99.99,,,0.00,Acu-Link.com,2014-12-25 23:17:00,
2014-12-25 17:32:00,39.9,34.2,29.90,SSW,202,0.0,-999.0,80,-99.99,,,0.00,Acu-Link.com,2014-12-25 23:32:00,
2014-12-25 17:47:00,39.2,33.9,29.90,SSW,202,0.0,-999.0,81,-99.99,,,0.00,Acu-Link.com,2014-12-25 23:47:00,
2014-12-25 18:02:00,38.5,33.8,29.92,WNW,292,0.0,-999.0,83,-99.99,,,0.00,Acu-Link.com,2014-12-26 00:02:00,
2014-12-25 18:18:00,38.3,34.2,29.91,South,180,0.0,-999.0,85,-99.99,,,0.00,Acu-Link.com,2014-12-26 00:18:00,
2014-12-25 18:33:00,37.9,33.8,29.92,SW,225,0.0,-999.0,85,-99.99,,,0.00,Acu-Link.com,2014-12-26 00:33:00,
2014-12-25 18:48:00,38.1,34.3,29.91,SSW,202,1.1,-999.0,86,-99.99,,,0.00,Acu-Link.com,2014-12-26 00:48:00,
2014-12-25 19:03:00,38.1,34.3,29.91,East,90,0.0,-999.0,86,-99.99,,,0.00,Acu-Link.com,2014-12-26 01:03:00,
2014-12-25 19:19:00,38.3,34.5,29.91,WNW,292,0.0,-999.0,86,-99.99,,,0.00,Acu-Link.com,2014-12-26 01:19:00,
2014-12-25 19:34:00,38.3,34.5,29.91,SW,225,1.7,-999.0,86,-99.99,,,0.00,Acu-Link.com,2014-12-26 01:34:00,
2014-12-25 19:49:00,38.7,34.9,29.91,SE,135,0.0,-999.0,86,-99.99,,,0.00,Acu-Link.com,2014-12-26 01:49:00,
2014-12-25 20:04:00,38.7,34.6,29.91,NE,45,1.7,-999.0,85,-99.99,,,0.00,Acu-Link.com,2014-12-26 02:04:00,
2014-12-25 20:19:00,38.5,34.4,29.91,South,180,0.0,-999.0,85,-99.99,,,0.00,Acu-Link.com,2014-12-26 02:19:00,
2014-12-25 20:35:00,38.3,34.2,29.91,SW,225,3.7,-999.0,85,-99.99,,,0.00,Acu-Link.com,2014-12-26 02:35:00,
2014-12-25 20:50:00,38.1,34.0,29.91,SSE,157,3.2,-999.0,85,-99.99,,,0.00,Acu-Link.com,2014-12-26 02:50:00,
2014-12-25 21:05:00,37.8,34.0,29.91,WSW,247,2.2,-999.0,86,-99.99,,,0.00,Acu-Link.com,2014-12-26 03:05:00,
2014-12-25 21:20:00,37.4,33.9,29.92,SSW,202,1.1,-999.0,87,-99.99,,,0.00,Acu-Link.com,2014-12-26 03:20:00,
2014-12-25 21:35:00,37.2,33.7,29.91,ESE,112,2.7,-999.0,87,-99.99,,,0.00,Acu-Link.com,2014-12-26 03:35:00,
2014-12-25 21:51:00,36.7,33.5,29.93,SSE,157,0.0,-999.0,88,-99.99,,,0.00,Acu-Link.com,2014-12-26 03:51:00,
2014-12-25 22:06:00,36.0,33.4,29.92,ESE,112,0.0,-999.0,90,-99.99,,,0.00,Acu-Link.com,2014-12-26 04:06:00,